^^
Station Historical Data
Daily Summary for March 10, 2018 Units:  Both    English   Metric
« Previous Day
Next Day »
Daily Weekly Monthly Yearly Custom
  High: Low: Average:
Temperature: TemperatureF °F /  -17.8 °C 58.1 °F /  14.5 °C 71.3 °F /  21.8 °C
Dew Point: DewpointF °F /  -17.8 °C 34.9 °F /  1.6 °C 45 °F /  7.2 °C
Humidity: Humidity% 17% 43%
Wind Speed: WindSpeedMPHmph /  0km/h - 1.9mph /  3.1km/h
Wind Gust: WindSpeedGustMPHmph /  0km/h - -
Wind- - SW
Pressure: PressureIn in /  0 hPa 29.65 in /  1003.9 hPa -
Precipitation: 0.00 in /  0 mm    
Historical Graphs
 
 
Tabular Data for March 10, 2018
Time Temperature Dew Point Pressure Wind Wind Speed Wind Gust Humidity Rainfall Rate (Hourly) solar Conditions
TemperatureF °F /  -17.8 °C DewpointF °F /  -17.8 °C PressureInin /  0hPa Calm     Humidity% HourlyPrecipInin /  0mm SolarRadiationWatts/m^2 W/m2 Conditions
00:00 66.4 °F /  19.1 °C 49.6 °F /  9.8 °C 29.72in /  1006.3hPa Calm     55% 0.00in /  0mm 0.0 W/m2
00:05 66.0 °F /  18.9 °C 49.5 °F /  9.7 °C 29.72in /  1006.3hPa Calm     55% 0.00in /  0mm 0.0 W/m2
00:10 65.8 °F /  18.8 °C 49.6 °F /  9.8 °C 29.72in /  1006.3hPa Calm     56% 0.00in /  0mm 0.0 W/m2
00:16 65.7 °F /  18.7 °C 49.5 °F /  9.7 °C 29.72in /  1006.3hPa Calm     56% 0.00in /  0mm 0.0 W/m2
00:21 65.5 °F /  18.6 °C 49.8 °F /  9.9 °C 29.72in /  1006.3hPa Calm     57% 0.00in /  0mm 0.0 W/m2
00:26 65.3 °F /  18.5 °C 50.2 °F /  10.1 °C 29.72in /  1006.3hPa Calm     58% 0.00in /  0mm 0.0 W/m2
00:31 65.1 °F /  18.4 °C 50.0 °F /  10 °C 29.72in /  1006.3hPa Calm     58% 0.00in /  0mm 0.0 W/m2
00:36 64.9 °F /  18.3 °C 50.2 °F /  10.1 °C 29.72in /  1006.3hPa Calm     59% 0.00in /  0mm 0.0 W/m2
00:41 64.8 °F /  18.2 °C 50.2 °F /  10.1 °C 29.72in /  1006.3hPa Calm     59% 0.00in /  0mm 0.0 W/m2
00:47 64.6 °F /  18.1 °C 49.5 °F /  9.7 °C 29.72in /  1006.3hPa Calm   3.0mph /  4.8km/h 58% 0.00in /  0mm 0.0 W/m2
00:52 64.8 °F /  18.2 °C 50.2 °F /  10.1 °C 29.72in /  1006.3hPa Calm   2.0mph /  3.2km/h 59% 0.00in /  0mm 0.0 W/m2
00:57 64.8 °F /  18.2 °C 49.6 °F /  9.8 °C 29.72in /  1006.3hPa Calm   1.0mph /  1.6km/h 58% 0.00in /  0mm 0.0 W/m2
01:03 64.8 °F /  18.2 °C 50.2 °F /  10.1 °C 29.72in /  1006.3hPa Calm     59% 0.00in /  0mm 0.0 W/m2
01:08 64.8 °F /  18.2 °C 49.6 °F /  9.8 °C 29.72in /  1006.3hPa Calm     58% 0.00in /  0mm 0.0 W/m2
01:13 64.6 °F /  18.1 °C 50.0 °F /  10 °C 29.72in /  1006.3hPa Calm     59% 0.00in /  0mm 0.0 W/m2
01:19 64.6 °F /  18.1 °C 50.4 °F /  10.2 °C 29.71in /  1006hPa Calm     60% 0.00in /  0mm 0.0 W/m2
01:24 64.2 °F /  17.9 °C 50.0 °F /  10 °C 29.71in /  1006hPa Calm     60% 0.00in /  0mm 0.0 W/m2
01:29 64.0 °F /  17.8 °C 50.4 °F /  10.2 °C 29.71in /  1006hPa Calm     61% 0.00in /  0mm 0.0 W/m2
01:35 63.9 °F /  17.7 °C 50.5 °F /  10.3 °C 29.71in /  1006hPa Calm     62% 0.00in /  0mm 0.0 W/m2
01:40 63.7 °F /  17.6 °C 50.9 °F /  10.5 °C 29.71in /  1006hPa Calm     63% 0.00in /  0mm 0.0 W/m2
01:45 63.5 °F /  17.5 °C 50.7 °F /  10.4 °C 29.71in /  1006hPa Calm     63% 0.00in /  0mm 0.0 W/m2
01:51 63.1 °F /  17.3 °C 50.7 °F /  10.4 °C 29.71in /  1006hPa Calm     64% 0.00in /  0mm 0.0 W/m2
01:56 63.0 °F /  17.2 °C 50.5 °F /  10.3 °C 29.71in /  1006hPa Calm   1.0mph /  1.6km/h 64% 0.00in /  0mm 0.0 W/m2
02:01 62.8 °F /  17.1 °C 50.9 °F /  10.5 °C 29.70in /  1005.6hPa Calm   1.0mph /  1.6km/h 65% 0.00in /  0mm 0.0 W/m2
02:07 62.4 °F /  16.9 °C 50.9 °F /  10.5 °C 29.70in /  1005.6hPa Calm   2.0mph /  3.2km/h 66% 0.00in /  0mm 0.0 W/m2
02:12 62.2 °F /  16.8 °C 50.7 °F /  10.4 °C 29.70in /  1005.6hPa Calm     66% 0.00in /  0mm 0.0 W/m2
02:17 62.1 °F /  16.7 °C 50.5 °F /  10.3 °C 29.70in /  1005.6hPa Calm   1.0mph /  1.6km/h 66% 0.00in /  0mm 0.0 W/m2
02:23 61.9 °F /  16.6 °C 50.7 °F /  10.4 °C 29.70in /  1005.6hPa Calm     67% 0.00in /  0mm 0.0 W/m2
02:28 61.7 °F /  16.5 °C 50.7 °F /  10.4 °C 29.70in /  1005.6hPa Calm   1.0mph /  1.6km/h 67% 0.00in /  0mm 0.0 W/m2
02:33 61.5 °F /  16.4 °C 50.5 °F /  10.3 °C 29.70in /  1005.6hPa Calm     67% 0.00in /  0mm 0.0 W/m2
02:39 61.3 °F /  16.3 °C 50.4 °F /  10.2 °C 29.70in /  1005.6hPa Calm   1.0mph /  1.6km/h 67% 0.00in /  0mm 0.0 W/m2
02:44 61.2 °F /  16.2 °C 50.5 °F /  10.3 °C 29.70in /  1005.6hPa Calm   1.0mph /  1.6km/h 68% 0.00in /  0mm 0.0 W/m2
02:49 61.2 °F /  16.2 °C 50.5 °F /  10.3 °C 29.70in /  1005.6hPa Calm   2.0mph /  3.2km/h 68% 0.00in /  0mm 0.0 W/m2
02:54 61.2 °F /  16.2 °C 50.9 °F /  10.5 °C 29.70in /  1005.6hPa Calm   2.0mph /  3.2km/h 69% 0.00in /  0mm 0.0 W/m2
02:59 61.0 °F /  16.1 °C 50.7 °F /  10.4 °C 29.70in /  1005.6hPa Calm   1.0mph /  1.6km/h 69% 0.00in /  0mm 0.0 W/m2
03:05 61.0 °F /  16.1 °C 51.1 °F /  10.6 °C 29.70in /  1005.6hPa Calm   1.0mph /  1.6km/h 70% 0.00in /  0mm 0.0 W/m2
03:10 60.8 °F /  16 °C 50.9 °F /  10.5 °C 29.70in /  1005.6hPa Calm     70% 0.00in /  0mm 0.0 W/m2
03:15 60.6 °F /  15.9 °C 51.1 °F /  10.6 °C 29.70in /  1005.6hPa Calm     71% 0.00in /  0mm 0.0 W/m2
03:20 60.6 °F /  15.9 °C 51.6 °F /  10.9 °C 29.70in /  1005.6hPa Calm     72% 0.00in /  0mm 0.0 W/m2
03:25 60.4 °F /  15.8 °C 51.8 °F /  11 °C 29.70in /  1005.6hPa Calm     73% 0.00in /  0mm 0.0 W/m2
03:30 60.3 °F /  15.7 °C 51.3 °F /  10.7 °C 29.70in /  1005.6hPa Calm     72% 0.00in /  0mm 0.0 W/m2
03:35 60.3 °F /  15.7 °C 51.6 °F /  10.9 °C 29.70in /  1005.6hPa Calm   1.0mph /  1.6km/h 73% 0.00in /  0mm 0.0 W/m2
03:40 60.1 °F /  15.6 °C 51.4 °F /  10.8 °C 29.70in /  1005.6hPa Calm     73% 0.00in /  0mm 0.0 W/m2
03:45 59.9 °F /  15.5 °C 51.3 °F /  10.7 °C 29.70in /  1005.6hPa Calm     73% 0.00in /  0mm 0.0 W/m2
03:50 59.7 °F /  15.4 °C 51.4 °F /  10.8 °C 29.69in /  1005.3hPa Calm     74% 0.00in /  0mm 0.0 W/m2
03:55 59.5 °F /  15.3 °C 51.3 °F /  10.7 °C 29.69in /  1005.3hPa Calm     74% 0.00in /  0mm 0.0 W/m2
04:01 59.4 °F /  15.2 °C 51.4 °F /  10.8 °C 29.69in /  1005.3hPa Calm     75% 0.00in /  0mm 0.0 W/m2
04:06 59.4 °F /  15.2 °C 51.1 °F /  10.6 °C 29.69in /  1005.3hPa Calm     74% 0.00in /  0mm 0.0 W/m2
04:12 59.2 °F /  15.1 °C 50.9 °F /  10.5 °C 29.69in /  1005.3hPa Calm   2.0mph /  3.2km/h 74% 0.00in /  0mm 0.0 W/m2
04:17 59.2 °F /  15.1 °C 50.9 °F /  10.5 °C 29.69in /  1005.3hPa Calm     74% 0.00in /  0mm 0.0 W/m2
04:22 58.8 °F /  14.9 °C 50.5 °F /  10.3 °C 29.69in /  1005.3hPa Calm   2.0mph /  3.2km/h 74% 0.00in /  0mm 0.0 W/m2
04:27 58.8 °F /  14.9 °C 50.5 °F /  10.3 °C 29.69in /  1005.3hPa Calm   1.0mph /  1.6km/h 74% 0.00in /  0mm 0.0 W/m2
04:32 58.6 °F /  14.8 °C 50.4 °F /  10.2 °C 29.69in /  1005.3hPa SE 2.0mph /  3.2km/h 2.0mph /  3.2km/h 74% 0.00in /  0mm 0.0 W/m2
04:37 58.6 °F /  14.8 °C 50.7 °F /  10.4 °C 29.68in /  1005hPa Calm   1.0mph /  1.6km/h 75% 0.00in /  0mm 0.0 W/m2
04:43 58.5 °F /  14.7 °C 50.2 °F /  10.1 °C 29.68in /  1005hPa Calm     74% 0.00in /  0mm 0.0 W/m2
04:48 58.5 °F /  14.7 °C 50.5 °F /  10.3 °C 29.68in /  1005hPa Calm   2.0mph /  3.2km/h 75% 0.00in /  0mm 0.0 W/m2
04:53 58.5 °F /  14.7 °C 50.5 °F /  10.3 °C 29.68in /  1005hPa Calm   1.0mph /  1.6km/h 75% 0.00in /  0mm 0.0 W/m2
04:58 58.5 °F /  14.7 °C 50.5 °F /  10.3 °C 29.68in /  1005hPa SE 0.9mph /  1.4km/h 1.0mph /  1.6km/h 75% 0.00in /  0mm 0.0 W/m2
05:03 58.5 °F /  14.7 °C 50.5 °F /  10.3 °C 29.68in /  1005hPa SE 0.9mph /  1.4km/h 1.0mph /  1.6km/h 75% 0.00in /  0mm 0.0 W/m2
05:08 58.5 °F /  14.7 °C 50.5 °F /  10.3 °C 29.68in /  1005hPa Calm   1.0mph /  1.6km/h 75% 0.00in /  0mm 0.0 W/m2
05:13 58.5 °F /  14.7 °C 50.5 °F /  10.3 °C 29.68in /  1005hPa Calm   2.0mph /  3.2km/h 75% 0.00in /  0mm 0.0 W/m2
05:18 58.3 °F /  14.6 °C 50.0 °F /  10 °C 29.68in /  1005hPa Calm   3.0mph /  4.8km/h 74% 0.00in /  0mm 0.0 W/m2
05:24 58.5 °F /  14.7 °C 49.8 °F /  9.9 °C 29.68in /  1005hPa Calm     73% 0.00in /  0mm 0.0 W/m2
05:29 58.3 °F /  14.6 °C 49.6 °F /  9.8 °C 29.68in /  1005hPa Calm     73% 0.00in /  0mm 0.0 W/m2
05:34 58.3 °F /  14.6 °C 49.6 °F /  9.8 °C 29.69in /  1005.3hPa Calm     73% 0.00in /  0mm 0.0 W/m2
05:40 58.1 °F /  14.5 °C 49.5 °F /  9.7 °C 29.69in /  1005.3hPa Calm     73% 0.00in /  0mm 0.0 W/m2
05:45 58.1 °F /  14.5 °C 49.5 °F /  9.7 °C 29.69in /  1005.3hPa Calm   2.0mph /  3.2km/h 73% 0.00in /  0mm 0.0 W/m2
05:50 58.1 °F /  14.5 °C 49.1 °F /  9.5 °C 29.69in /  1005.3hPa Calm     72% 0.00in /  0mm 0.0 W/m2
05:55 58.3 °F /  14.6 °C 49.3 °F /  9.6 °C 29.69in /  1005.3hPa Calm     72% 0.00in /  0mm 0.0 W/m2
06:00 58.3 °F /  14.6 °C 49.3 °F /  9.6 °C 29.69in /  1005.3hPa Calm     72% 0.00in /  0mm 0.0 W/m2
06:05 58.3 °F /  14.6 °C 48.9 °F /  9.4 °C 29.69in /  1005.3hPa SE 0.9mph /  1.4km/h 1.0mph /  1.6km/h 71% 0.00in /  0mm 0.0 W/m2
06:10 58.5 °F /  14.7 °C 49.1 °F /  9.5 °C 29.69in /  1005.3hPa Calm   3.0mph /  4.8km/h 71% 0.00in /  0mm 0.0 W/m2
06:15 58.5 °F /  14.7 °C 48.7 °F /  9.3 °C 29.69in /  1005.3hPa Calm   3.0mph /  4.8km/h 70% 0.00in /  0mm 0.0 W/m2
06:21 58.5 °F /  14.7 °C 48.7 °F /  9.3 °C 29.70in /  1005.6hPa Calm   1.0mph /  1.6km/h 70% 0.00in /  0mm 0.0 W/m2
06:26 58.6 °F /  14.8 °C 48.9 °F /  9.4 °C 29.70in /  1005.6hPa Calm   1.0mph /  1.6km/h 70% 0.00in /  0mm 0.0 W/m2
06:31 58.6 °F /  14.8 °C 48.2 °F /  9 °C 29.70in /  1005.6hPa SE 0.9mph /  1.4km/h 2.0mph /  3.2km/h 68% 0.00in /  0mm 0.0 W/m2
06:36 58.6 °F /  14.8 °C 48.6 °F /  9.2 °C 29.70in /  1005.6hPa East 2.0mph /  3.2km/h 4.0mph /  6.4km/h 69% 0.00in /  0mm 0.0 W/m2
06:41 58.6 °F /  14.8 °C 48.9 °F /  9.4 °C 29.70in /  1005.6hPa East 2.9mph /  4.7km/h 4.0mph /  6.4km/h 70% 0.00in /  0mm 0.0 W/m2
06:46 58.6 °F /  14.8 °C 48.9 °F /  9.4 °C 29.71in /  1006hPa Calm   4.0mph /  6.4km/h 70% 0.00in /  0mm 0.0 W/m2
06:51 58.5 °F /  14.7 °C 48.7 °F /  9.3 °C 29.71in /  1006hPa Calm   3.0mph /  4.8km/h 70% 0.00in /  0mm 0.0 W/m2
06:56 58.5 °F /  14.7 °C 48.4 °F /  9.1 °C 29.71in /  1006hPa ESE 0.9mph /  1.4km/h 3.0mph /  4.8km/h 69% 0.00in /  0mm 0.0 W/m2
07:01 58.5 °F /  14.7 °C 47.5 °F /  8.6 °C 29.71in /  1006hPa East 2.9mph /  4.7km/h 3.0mph /  4.8km/h 67% 0.00in /  0mm 7.0 W/m2
07:06 58.5 °F /  14.7 °C 47.1 °F /  8.4 °C 29.71in /  1006hPa ENE 2.0mph /  3.2km/h 4.0mph /  6.4km/h 66% 0.00in /  0mm 12.0 W/m2
07:12 58.6 °F /  14.8 °C 46.9 °F /  8.3 °C 29.71in /  1006hPa ENE 0.9mph /  1.4km/h 2.0mph /  3.2km/h 65% 0.00in /  0mm 16.0 W/m2
07:18 58.8 °F /  14.9 °C 46.2 °F /  7.9 °C 29.71in /  1006hPa ENE 0.9mph /  1.4km/h 1.0mph /  1.6km/h 63% 0.00in /  0mm 23.0 W/m2
07:23 59.0 °F /  15 °C 45.5 °F /  7.5 °C 29.72in /  1006.3hPa East 0.9mph /  1.4km/h 4.0mph /  6.4km/h 61% 0.00in /  0mm 25.0 W/m2
07:28 59.4 °F /  15.2 °C 45.9 °F /  7.7 °C 29.72in /  1006.3hPa ENE 2.9mph /  4.7km/h 3.0mph /  4.8km/h 61% 0.00in /  0mm 25.0 W/m2
07:33 59.5 °F /  15.3 °C 46.6 °F /  8.1 °C 29.72in /  1006.3hPa ESE 4.0mph /  6.4km/h 6.0mph /  9.7km/h 62% 0.00in /  0mm 26.0 W/m2
07:38 59.9 °F /  15.5 °C 47.3 °F /  8.5 °C 29.72in /  1006.3hPa East 2.0mph /  3.2km/h 3.0mph /  4.8km/h 63% 0.00in /  0mm 26.0 W/m2
07:43 60.1 °F /  15.6 °C 47.5 °F /  8.6 °C 29.72in /  1006.3hPa ESE 0.9mph /  1.4km/h 5.0mph /  8km/h 63% 0.00in /  0mm 30.0 W/m2
07:48 60.4 °F /  15.8 °C 47.3 °F /  8.5 °C 29.72in /  1006.3hPa Calm   1.0mph /  1.6km/h 62% 0.00in /  0mm 30.0 W/m2
07:53 60.8 °F /  16 °C 48.2 °F /  9 °C 29.72in /  1006.3hPa Calm     63% 0.00in /  0mm 33.0 W/m2
07:59 61.3 °F /  16.3 °C 47.8 °F /  8.8 °C 29.72in /  1006.3hPa Calm   2.0mph /  3.2km/h 61% 0.00in /  0mm 32.0 W/m2
08:04 61.9 °F /  16.6 °C 48.2 °F /  9 °C 29.72in /  1006.3hPa Calm   3.0mph /  4.8km/h 61% 0.00in /  0mm 28.0 W/m2
08:09 62.2 °F /  16.8 °C 48.2 °F /  9 °C 29.72in /  1006.3hPa NE 4.0mph /  6.4km/h 4.0mph /  6.4km/h 60% 0.00in /  0mm 26.0 W/m2
08:14 63.0 °F /  17.2 °C 46.9 °F /  8.3 °C 29.73in /  1006.7hPa ENE 0.9mph /  1.4km/h 5.0mph /  8km/h 56% 0.00in /  0mm 26.0 W/m2
08:19 63.7 °F /  17.6 °C 47.7 °F /  8.7 °C 29.73in /  1006.7hPa NE 2.9mph /  4.7km/h 5.0mph /  8km/h 56% 0.00in /  0mm 26.0 W/m2
08:24 64.2 °F /  17.9 °C 47.7 °F /  8.7 °C 29.73in /  1006.7hPa ENE 2.9mph /  4.7km/h 6.0mph /  9.7km/h 55% 0.00in /  0mm 26.0 W/m2
08:29 64.9 °F /  18.3 °C 47.8 °F /  8.8 °C 29.73in /  1006.7hPa ENE 2.0mph /  3.2km/h 4.0mph /  6.4km/h 54% 0.00in /  0mm 26.0 W/m2
08:34 65.7 °F /  18.7 °C 46.6 °F /  8.1 °C 29.73in /  1006.7hPa NE 0.9mph /  1.4km/h 5.0mph /  8km/h 50% 0.00in /  0mm 28.0 W/m2
08:40 66.4 °F /  19.1 °C 47.1 °F /  8.4 °C 29.73in /  1006.7hPa ENE 2.9mph /  4.7km/h 5.0mph /  8km/h 50% 0.00in /  0mm 28.0 W/m2
08:45 67.1 °F /  19.5 °C 46.8 °F /  8.2 °C 29.73in /  1006.7hPa Calm   4.0mph /  6.4km/h 48% 0.00in /  0mm 28.0 W/m2
08:50 67.6 °F /  19.8 °C 46.8 °F /  8.2 °C 29.73in /  1006.7hPa Calm   5.0mph /  8km/h 47% 0.00in /  0mm 30.0 W/m2
08:55 68.4 °F /  20.2 °C 46.8 °F /  8.2 °C 29.73in /  1006.7hPa Calm   5.0mph /  8km/h 46% 0.00in /  0mm 30.0 W/m2
09:00 68.7 °F /  20.4 °C 45.9 °F /  7.7 °C 29.73in /  1006.7hPa NE 2.0mph /  3.2km/h 2.0mph /  3.2km/h 44% 0.00in /  0mm 30.0 W/m2
09:05 69.3 °F /  20.7 °C 46.9 °F /  8.3 °C 29.73in /  1006.7hPa Calm   2.0mph /  3.2km/h 45% 0.00in /  0mm 32.0 W/m2
09:10 69.6 °F /  20.9 °C 46.2 °F /  7.9 °C 29.73in /  1006.7hPa Calm   3.0mph /  4.8km/h 43% 0.00in /  0mm 32.0 W/m2
09:15 70.2 °F /  21.2 °C 47.3 °F /  8.5 °C 29.73in /  1006.7hPa Calm   1.0mph /  1.6km/h 44% 0.00in /  0mm 33.0 W/m2
09:20 70.5 °F /  21.4 °C 46.9 °F /  8.3 °C 29.73in /  1006.7hPa Calm   1.0mph /  1.6km/h 43% 0.00in /  0mm 35.0 W/m2
09:25 71.1 °F /  21.7 °C 47.5 °F /  8.6 °C 29.73in /  1006.7hPa Calm   1.0mph /  1.6km/h 43% 0.00in /  0mm 44.0 W/m2
09:31 71.4 °F /  21.9 °C 45.9 °F /  7.7 °C 29.73in /  1006.7hPa NNW 0.9mph /  1.4km/h 3.0mph /  4.8km/h 40% 0.00in /  0mm 46.0 W/m2
09:36 71.8 °F /  22.1 °C 46.8 °F /  8.2 °C 29.74in /  1007hPa Calm   1.0mph /  1.6km/h 41% 0.00in /  0mm 47.0 W/m2
09:41 72.0 °F /  22.2 °C 46.9 °F /  8.3 °C 29.74in /  1007hPa Calm     41% 0.00in /  0mm 116.0 W/m2
09:46 72.3 °F /  22.4 °C 46.0 °F /  7.8 °C 29.74in /  1007hPa Calm   4.0mph /  6.4km/h 39% 0.00in /  0mm 652.0 W/m2
09:51 72.7 °F /  22.6 °C 46.2 °F /  7.9 °C 29.74in /  1007hPa WSW 0.9mph /  1.4km/h 1.0mph /  1.6km/h 39% 0.00in /  0mm 671.0 W/m2
09:56 73.2 °F /  22.9 °C 46.8 °F /  8.2 °C 29.74in /  1007hPa West 2.9mph /  4.7km/h 3.0mph /  4.8km/h 39% 0.00in /  0mm 687.0 W/m2
10:01 73.8 °F /  23.2 °C 46.6 °F /  8.1 °C 29.73in /  1006.7hPa West 2.0mph /  3.2km/h 2.0mph /  3.2km/h 38% 0.00in /  0mm 703.0 W/m2
10:06 74.7 °F /  23.7 °C 46.6 °F /  8.1 °C 29.74in /  1007hPa NNW 0.9mph /  1.4km/h 3.0mph /  4.8km/h 37% 0.00in /  0mm 721.0 W/m2
10:12 75.4 °F /  24.1 °C 45.1 °F /  7.3 °C 29.73in /  1006.7hPa Calm     34% 0.00in /  0mm 735.0 W/m2
10:17 75.9 °F /  24.4 °C 47.1 °F /  8.4 °C 29.73in /  1006.7hPa WNW 4.9mph /  7.9km/h 6.0mph /  9.7km/h 36% 0.00in /  0mm 747.0 W/m2
10:22 76.3 °F /  24.6 °C 47.3 °F /  8.5 °C 29.73in /  1006.7hPa WNW 0.9mph /  1.4km/h 2.0mph /  3.2km/h 36% 0.00in /  0mm 763.0 W/m2
10:27 76.8 °F /  24.9 °C 47.1 °F /  8.4 °C 29.73in /  1006.7hPa Calm   5.0mph /  8km/h 35% 0.00in /  0mm 780.0 W/m2
10:32 77.4 °F /  25.2 °C 47.5 °F /  8.6 °C 29.73in /  1006.7hPa WSW 2.9mph /  4.7km/h 3.0mph /  4.8km/h 35% 0.00in /  0mm 796.0 W/m2
10:37 77.4 °F /  25.2 °C 46.8 °F /  8.2 °C 29.73in /  1006.7hPa NNW 2.0mph /  3.2km/h 5.0mph /  8km/h 34% 0.00in /  0mm 807.0 W/m2
10:42 77.7 °F /  25.4 °C 47.1 °F /  8.4 °C 29.73in /  1006.7hPa SW 0.9mph /  1.4km/h 3.0mph /  4.8km/h 34% 0.00in /  0mm 824.0 W/m2
10:47 78.1 °F /  25.6 °C 45.9 °F /  7.7 °C 29.73in /  1006.7hPa Calm   2.0mph /  3.2km/h 32% 0.00in /  0mm 830.0 W/m2
10:52 78.4 °F /  25.8 °C 46.9 °F /  8.3 °C 29.73in /  1006.7hPa Calm   1.0mph /  1.6km/h 33% 0.00in /  0mm 846.0 W/m2
10:57 79.0 °F /  26.1 °C 45.7 °F /  7.6 °C 29.72in /  1006.3hPa NW 2.0mph /  3.2km/h 7.0mph /  11.3km/h 31% 0.00in /  0mm 861.0 W/m2
11:03 79.5 °F /  26.4 °C 46.2 °F /  7.9 °C 29.73in /  1006.7hPa Calm   1.0mph /  1.6km/h 31% 0.00in /  0mm 872.0 W/m2
11:08 80.1 °F /  26.7 °C 45.0 °F /  7.2 °C 29.72in /  1006.3hPa SW 2.9mph /  4.7km/h 5.0mph /  8km/h 29% 0.00in /  0mm 884.0 W/m2
11:13 80.4 °F /  26.9 °C 46.2 °F /  7.9 °C 29.72in /  1006.3hPa WNW 2.9mph /  4.7km/h 6.0mph /  9.7km/h 30% 0.00in /  0mm 898.0 W/m2
11:18 80.4 °F /  26.9 °C 45.3 °F /  7.4 °C 29.72in /  1006.3hPa WNW 2.0mph /  3.2km/h 7.0mph /  11.3km/h 29% 0.00in /  0mm 905.0 W/m2
11:23 80.8 °F /  27.1 °C 46.4 °F /  8 °C 29.72in /  1006.3hPa WSW 2.9mph /  4.7km/h 3.0mph /  4.8km/h 30% 0.00in /  0mm 918.0 W/m2
11:28 81.0 °F /  27.2 °C 45.7 °F /  7.6 °C 29.72in /  1006.3hPa NNW 4.9mph /  7.9km/h 5.0mph /  8km/h 29% 0.00in /  0mm 925.0 W/m2
11:33 81.5 °F /  27.5 °C 45.3 °F /  7.4 °C 29.72in /  1006.3hPa NW 0.9mph /  1.4km/h 7.0mph /  11.3km/h 28% 0.00in /  0mm 935.0 W/m2
11:38 81.7 °F /  27.6 °C 45.3 °F /  7.4 °C 29.72in /  1006.3hPa WNW 4.9mph /  7.9km/h 9.0mph /  14.5km/h 28% 0.00in /  0mm 942.0 W/m2
11:43 81.7 °F /  27.6 °C 45.3 °F /  7.4 °C 29.71in /  1006hPa WSW 0.9mph /  1.4km/h 2.0mph /  3.2km/h 28% 0.00in /  0mm 949.0 W/m2
11:48 81.9 °F /  27.7 °C 45.5 °F /  7.5 °C 29.71in /  1006hPa Calm   2.0mph /  3.2km/h 28% 0.00in /  0mm 958.0 W/m2
11:54 82.8 °F /  28.2 °C 46.4 °F /  8 °C 29.71in /  1006hPa NW 2.9mph /  4.7km/h 4.0mph /  6.4km/h 28% 0.00in /  0mm 963.0 W/m2
11:59 82.9 °F /  28.3 °C 45.5 °F /  7.5 °C 29.71in /  1006hPa North 2.9mph /  4.7km/h 4.0mph /  6.4km/h 27% 0.00in /  0mm 970.0 W/m2
12:04 83.1 °F /  28.4 °C 46.6 °F /  8.1 °C 29.70in /  1005.6hPa WNW 2.0mph /  3.2km/h 2.0mph /  3.2km/h 28% 0.00in /  0mm 976.0 W/m2
12:09 83.7 °F /  28.7 °C 46.2 °F /  7.9 °C 29.70in /  1005.6hPa WSW 6.9mph /  11.1km/h 14.0mph /  22.5km/h 27% 0.00in /  0mm 981.0 W/m2
12:14 83.7 °F /  28.7 °C 45.1 °F /  7.3 °C 29.70in /  1005.6hPa South 8.1mph /  13km/h 10.0mph /  16.1km/h 26% 0.00in /  0mm 983.0 W/m2
12:19 83.5 °F /  28.6 °C 45.0 °F /  7.2 °C 29.70in /  1005.6hPa West 2.9mph /  4.7km/h 6.0mph /  9.7km/h 26% 0.00in /  0mm 983.0 W/m2
12:24 83.1 °F /  28.4 °C 44.6 °F /  7 °C 29.70in /  1005.6hPa NW 2.0mph /  3.2km/h 7.0mph /  11.3km/h 26% 0.00in /  0mm 986.0 W/m2
12:29 82.9 °F /  28.3 °C 44.6 °F /  7 °C 29.70in /  1005.6hPa West 2.0mph /  3.2km/h 8.0mph /  12.9km/h 26% 0.00in /  0mm 991.0 W/m2
12:34 82.8 °F /  28.2 °C 45.3 °F /  7.4 °C 29.69in /  1005.3hPa WNW 8.1mph /  13km/h 9.0mph /  14.5km/h 27% 0.00in /  0mm 998.0 W/m2
12:39 82.9 °F /  28.3 °C 45.5 °F /  7.5 °C 29.70in /  1005.6hPa West 2.9mph /  4.7km/h 12.0mph /  19.3km/h 27% 0.00in /  0mm 1014.0 W/m2
12:44 83.1 °F /  28.4 °C 44.6 °F /  7 °C 29.69in /  1005.3hPa WNW 4.9mph /  7.9km/h 10.0mph /  16.1km/h 26% 0.00in /  0mm 1021.0 W/m2
12:50 83.5 °F /  28.6 °C 43.9 °F /  6.6 °C 29.69in /  1005.3hPa NW 0.9mph /  1.4km/h 9.0mph /  14.5km/h 25% 0.00in /  0mm 1013.0 W/m2
12:55 84.0 °F /  28.9 °C 43.3 °F /  6.3 °C 29.69in /  1005.3hPa NNW 6.0mph /  9.7km/h 7.0mph /  11.3km/h 24% 0.00in /  0mm 1021.0 W/m2
13:00 84.6 °F /  29.2 °C 45.9 °F /  7.7 °C 29.69in /  1005.3hPa WSW 4.9mph /  7.9km/h 8.0mph /  12.9km/h 26% 0.00in /  0mm 1028.0 W/m2
13:05 84.6 °F /  29.2 °C 45.0 °F /  7.2 °C 29.68in /  1005hPa WSW 2.9mph /  4.7km/h 10.0mph /  16.1km/h 25% 0.00in /  0mm 1076.0 W/m2
13:10 84.0 °F /  28.9 °C 45.5 °F /  7.5 °C 29.68in /  1005hPa Calm   5.0mph /  8km/h 26% 0.00in /  0mm 1067.0 W/m2
13:15 84.0 °F /  28.9 °C 44.4 °F /  6.9 °C 29.68in /  1005hPa WSW 0.9mph /  1.4km/h 7.0mph /  11.3km/h 25% 0.00in /  0mm 1107.0 W/m2
13:20 84.4 °F /  29.1 °C 44.8 °F /  7.1 °C 29.68in /  1005hPa Calm   6.0mph /  9.7km/h 25% 0.00in /  0mm 1129.0 W/m2
13:25 85.1 °F /  29.5 °C 45.3 °F /  7.4 °C 29.68in /  1005hPa WSW 4.9mph /  7.9km/h 5.0mph /  8km/h 25% 0.00in /  0mm 304.0 W/m2
13:30 84.9 °F /  29.4 °C 44.1 °F /  6.7 °C 29.68in /  1005hPa NNE 2.0mph /  3.2km/h 5.0mph /  8km/h 24% 0.00in /  0mm 200.0 W/m2
13:36 84.6 °F /  29.2 °C 45.0 °F /  7.2 °C 29.67in /  1004.6hPa SW 2.0mph /  3.2km/h 6.0mph /  9.7km/h 25% 0.00in /  0mm 1114.0 W/m2
13:41 84.4 °F /  29.1 °C 44.8 °F /  7.1 °C 29.67in /  1004.6hPa WNW 4.0mph /  6.4km/h 8.0mph /  12.9km/h 25% 0.00in /  0mm 1009.0 W/m2
13:46 84.0 °F /  28.9 °C 44.4 °F /  6.9 °C 29.67in /  1004.6hPa NNW 6.9mph /  11.1km/h 15.0mph /  24.1km/h 25% 0.00in /  0mm 1025.0 W/m2
13:51 84.6 °F /  29.2 °C 43.9 °F /  6.6 °C 29.67in /  1004.6hPa WSW 2.9mph /  4.7km/h 7.0mph /  11.3km/h 24% 0.00in /  0mm 1041.0 W/m2
13:56 84.9 °F /  29.4 °C 44.1 °F /  6.7 °C 29.67in /  1004.6hPa SSW 0.9mph /  1.4km/h 4.0mph /  6.4km/h 24% 0.00in /  0mm 1088.0 W/m2
14:01 84.9 °F /  29.4 °C 44.1 °F /  6.7 °C 29.67in /  1004.6hPa WSW 12.1mph /  19.5km/h 12.1mph /  19.5km/h 24% 0.00in /  0mm 1062.0 W/m2
14:06 84.7 °F /  29.3 °C 42.8 °F /  6 °C 29.67in /  1004.6hPa West 8.9mph /  14.3km/h 12.0mph /  19.3km/h 23% 0.00in /  0mm 1079.0 W/m2
14:11 84.6 °F /  29.2 °C 43.9 °F /  6.6 °C 29.66in /  1004.3hPa West 10.1mph /  16.3km/h 10.1mph /  16.3km/h 24% 0.00in /  0mm 1039.0 W/m2
14:16 84.4 °F /  29.1 °C 43.7 °F /  6.5 °C 29.67in /  1004.6hPa WSW 4.9mph /  7.9km/h 5.0mph /  8km/h 24% 0.00in /  0mm 211.0 W/m2
14:21 83.7 °F /  28.7 °C 41.9 °F /  5.5 °C 29.66in /  1004.3hPa WSW 2.9mph /  4.7km/h 9.0mph /  14.5km/h 23% 0.00in /  0mm 257.0 W/m2
14:26 82.8 °F /  28.2 °C 42.3 °F /  5.7 °C 29.66in /  1004.3hPa Calm   8.0mph /  12.9km/h 24% 0.00in /  0mm 213.0 W/m2
14:32 82.8 °F /  28.2 °C 44.4 °F /  6.9 °C 29.66in /  1004.3hPa Calm   9.0mph /  14.5km/h 26% 0.00in /  0mm 1048.0 W/m2
14:37 83.5 °F /  28.6 °C 43.0 °F /  6.1 °C 29.66in /  1004.3hPa WNW 4.0mph /  6.4km/h 8.0mph /  12.9km/h 24% 0.00in /  0mm 1072.0 W/m2
14:42 83.3 °F /  28.5 °C 39.4 °F /  4.1 °C 29.65in /  1003.9hPa South 4.9mph /  7.9km/h 9.0mph /  14.5km/h 21% 0.00in /  0mm 237.0 W/m2
14:47 83.5 °F /  28.6 °C 39.4 °F /  4.1 °C 29.65in /  1003.9hPa SW 8.1mph /  13km/h 12.0mph /  19.3km/h 21% 0.00in /  0mm 1048.0 W/m2
14:52 83.7 °F /  28.7 °C 39.6 °F /  4.2 °C 29.65in /  1003.9hPa SW 2.9mph /  4.7km/h 17.0mph /  27.4km/h 21% 0.00in /  0mm 962.0 W/m2
14:57 84.0 °F /  28.9 °C 38.7 °F /  3.7 °C 29.65in /  1003.9hPa WSW 2.0mph /  3.2km/h 10.0mph /  16.1km/h 20% 0.00in /  0mm 144.0 W/m2
15:02 83.5 °F /  28.6 °C 38.1 °F /  3.4 °C 29.65in /  1003.9hPa SSW 6.0mph /  9.7km/h 9.0mph /  14.5km/h 20% 0.00in /  0mm 911.0 W/m2
15:07 83.3 °F /  28.5 °C 39.4 °F /  4.1 °C 29.65in /  1003.9hPa WSW 4.0mph /  6.4km/h 7.0mph /  11.3km/h 21% 0.00in /  0mm 158.0 W/m2
15:13 83.3 °F /  28.5 °C 39.4 °F /  4.1 °C 29.65in /  1003.9hPa West 2.9mph /  4.7km/h 8.0mph /  12.9km/h 21% 0.00in /  0mm 912.0 W/m2
15:18 84.0 °F /  28.9 °C 38.7 °F /  3.7 °C 29.65in /  1003.9hPa WSW 2.9mph /  4.7km/h 7.0mph /  11.3km/h 20% 0.00in /  0mm 877.0 W/m2
15:23 84.4 °F /  29.1 °C 37.6 °F /  3.1 °C 29.65in /  1003.9hPa WSW 4.9mph /  7.9km/h 11.0mph /  17.7km/h 19% 0.00in /  0mm 812.0 W/m2
15:28 84.4 °F /  29.1 °C 39.0 °F /  3.9 °C 29.65in /  1003.9hPa WSW 4.0mph /  6.4km/h 10.0mph /  16.1km/h 20% 0.00in /  0mm 795.0 W/m2
15:33 84.7 °F /  29.3 °C 40.5 °F /  4.7 °C 29.65in /  1003.9hPa WSW 4.9mph /  7.9km/h 15.0mph /  24.1km/h 21% 0.00in /  0mm 782.0 W/m2
15:38 84.9 °F /  29.4 °C 40.6 °F /  4.8 °C 29.65in /  1003.9hPa West 2.0mph /  3.2km/h 9.0mph /  14.5km/h 21% 0.00in /  0mm 766.0 W/m2
15:43 85.3 °F /  29.6 °C 41.0 °F /  5 °C 29.65in /  1003.9hPa WSW 4.0mph /  6.4km/h 11.0mph /  17.7km/h 21% 0.00in /  0mm 749.0 W/m2
15:48 85.3 °F /  29.6 °C 41.0 °F /  5 °C 29.65in /  1003.9hPa WSW 4.9mph /  7.9km/h 9.0mph /  14.5km/h 21% 0.00in /  0mm 731.0 W/m2
15:53 85.1 °F /  29.5 °C 39.6 °F /  4.2 °C 29.65in /  1003.9hPa WSW 2.9mph /  4.7km/h 8.0mph /  12.9km/h 20% 0.00in /  0mm 717.0 W/m2
15:59 85.3 °F /  29.6 °C 41.0 °F /  5 °C 29.65in /  1003.9hPa SE 2.9mph /  4.7km/h 12.0mph /  19.3km/h 21% 0.00in /  0mm 698.0 W/m2
16:04 85.5 °F /  29.7 °C 41.0 °F /  5 °C 29.65in /  1003.9hPa West 2.0mph /  3.2km/h 10.0mph /  16.1km/h 21% 0.00in /  0mm 686.0 W/m2
16:09 85.3 °F /  29.6 °C 41.0 °F /  5 °C 29.65in /  1003.9hPa West 4.0mph /  6.4km/h 13.0mph /  20.9km/h 21% 0.00in /  0mm 693.0 W/m2
16:14 84.7 °F /  29.3 °C 40.5 °F /  4.7 °C 29.65in /  1003.9hPa WSW 2.0mph /  3.2km/h 9.0mph /  14.5km/h 21% 0.00in /  0mm 684.0 W/m2
16:19 84.4 °F /  29.1 °C 40.1 °F /  4.5 °C 29.65in /  1003.9hPa South 6.9mph /  11.1km/h 14.0mph /  22.5km/h 21% 0.00in /  0mm 657.0 W/m2
16:24 84.0 °F /  28.9 °C 39.9 °F /  4.4 °C 29.65in /  1003.9hPa SW 8.1mph /  13km/h 10.0mph /  16.1km/h 21% 0.00in /  0mm 642.0 W/m2
16:29 83.7 °F /  28.7 °C 38.3 °F /  3.5 °C 29.65in /  1003.9hPa West 4.9mph /  7.9km/h 11.0mph /  17.7km/h 20% 0.00in /  0mm 659.0 W/m2
16:34 83.8 °F /  28.8 °C 37.2 °F /  2.9 °C 29.65in /  1003.9hPa West 6.0mph /  9.7km/h 9.0mph /  14.5km/h 19% 0.00in /  0mm 636.0 W/m2
16:39 83.8 °F /  28.8 °C 37.2 °F /  2.9 °C 29.65in /  1003.9hPa West 4.0mph /  6.4km/h 14.0mph /  22.5km/h 19% 0.00in /  0mm 527.0 W/m2
16:45 84.0 °F /  28.9 °C 38.7 °F /  3.7 °C 29.65in /  1003.9hPa SW 0.9mph /  1.4km/h 2.0mph /  3.2km/h 20% 0.00in /  0mm 554.0 W/m2
16:50 84.4 °F /  29.1 °C 34.9 °F /  1.6 °C 29.65in /  1003.9hPa WSW 2.9mph /  4.7km/h 12.0mph /  19.3km/h 17% 0.00in /  0mm 536.0 W/m2
16:55 84.4 °F /  29.1 °C 37.6 °F /  3.1 °C 29.65in /  1003.9hPa WSW 13.0mph /  20.9km/h 13.0mph /  20.9km/h 19% 0.00in /  0mm 508.0 W/m2
17:00 84.4 °F /  29.1 °C 37.6 °F /  3.1 °C 29.65in /  1003.9hPa West 0.9mph /  1.4km/h 10.0mph /  16.1km/h 19% 0.00in /  0mm 485.0 W/m2
17:05 84.4 °F /  29.1 °C 37.6 °F /  3.1 °C 29.65in /  1003.9hPa WSW 4.9mph /  7.9km/h 11.0mph /  17.7km/h 19% 0.00in /  0mm 464.0 W/m2
17:10 84.2 °F /  29 °C 38.8 °F /  3.8 °C 29.65in /  1003.9hPa West 4.9mph /  7.9km/h 8.0mph /  12.9km/h 20% 0.00in /  0mm 448.0 W/m2
17:15 84.2 °F /  29 °C 37.4 °F /  3 °C 29.65in /  1003.9hPa SW 2.0mph /  3.2km/h 9.0mph /  14.5km/h 19% 0.00in /  0mm 318.0 W/m2
17:20 83.8 °F /  28.8 °C 37.2 °F /  2.9 °C 29.65in /  1003.9hPa SSW 4.0mph /  6.4km/h 8.0mph /  12.9km/h 19% 0.00in /  0mm 417.0 W/m2
17:25 83.8 °F /  28.8 °C 38.5 °F /  3.6 °C 29.65in /  1003.9hPa West 8.1mph /  13km/h 9.0mph /  14.5km/h 20% 0.00in /  0mm 376.0 W/m2
17:31 84.0 °F /  28.9 °C 38.7 °F /  3.7 °C 29.65in /  1003.9hPa West 2.9mph /  4.7km/h 7.0mph /  11.3km/h 20% 0.00in /  0mm 394.0 W/m2
17:37 84.4 °F /  29.1 °C 37.6 °F /  3.1 °C 29.65in /  1003.9hPa WSW 2.9mph /  4.7km/h 8.0mph /  12.9km/h 19% 0.00in /  0mm 374.0 W/m2
17:42 84.6 °F /  29.2 °C 37.8 °F /  3.2 °C 29.65in /  1003.9hPa West 8.1mph /  13km/h 13.0mph /  20.9km/h 19% 0.00in /  0mm 332.0 W/m2
17:47 84.4 °F /  29.1 °C 37.6 °F /  3.1 °C 29.65in /  1003.9hPa West 6.9mph /  11.1km/h 12.0mph /  19.3km/h 19% 0.00in /  0mm 309.0 W/m2
17:52 84.0 °F /  28.9 °C 38.7 °F /  3.7 °C 29.65in /  1003.9hPa WNW 6.0mph /  9.7km/h 7.0mph /  11.3km/h 20% 0.00in /  0mm 274.0 W/m2
17:57 83.5 °F /  28.6 °C 39.4 °F /  4.1 °C 29.65in /  1003.9hPa West 4.9mph /  7.9km/h 6.0mph /  9.7km/h 21% 0.00in /  0mm 60.0 W/m2
18:02 82.9 °F /  28.3 °C 39.0 °F /  3.9 °C 29.65in /  1003.9hPa WSW 2.9mph /  4.7km/h 8.0mph /  12.9km/h 21% 0.00in /  0mm 244.0 W/m2
18:07 82.8 °F /  28.2 °C 40.1 °F /  4.5 °C 29.65in /  1003.9hPa West 2.9mph /  4.7km/h 10.0mph /  16.1km/h 22% 0.00in /  0mm 207.0 W/m2
18:13 82.6 °F /  28.1 °C 41.0 °F /  5 °C 29.65in /  1003.9hPa NW 4.0mph /  6.4km/h 8.0mph /  12.9km/h 23% 0.00in /  0mm 192.0 W/m2
18:18 81.9 °F /  27.7 °C 40.5 °F /  4.7 °C 29.65in /  1003.9hPa WSW 4.9mph /  7.9km/h 8.0mph /  12.9km/h 23% 0.00in /  0mm 160.0 W/m2
18:24 81.7 °F /  27.6 °C 40.3 °F /  4.6 °C 29.65in /  1003.9hPa SE 2.0mph /  3.2km/h 9.0mph /  14.5km/h 23% 0.00in /  0mm 137.0 W/m2
18:29 81.3 °F /  27.4 °C 39.9 °F /  4.4 °C 29.65in /  1003.9hPa WNW 2.9mph /  4.7km/h 13.0mph /  20.9km/h 23% 0.00in /  0mm 111.0 W/m2
18:34 80.8 °F /  27.1 °C 40.6 °F /  4.8 °C 29.66in /  1004.3hPa West 4.9mph /  7.9km/h 8.0mph /  12.9km/h 24% 0.00in /  0mm 88.0 W/m2
18:39 80.4 °F /  26.9 °C 40.3 °F /  4.6 °C 29.66in /  1004.3hPa WNW 4.0mph /  6.4km/h 9.0mph /  14.5km/h 24% 0.00in /  0mm 69.0 W/m2
18:44 80.2 °F /  26.8 °C 40.1 °F /  4.5 °C 29.66in /  1004.3hPa WSW 2.9mph /  4.7km/h 8.0mph /  12.9km/h 24% 0.00in /  0mm 39.0 W/m2
18:49 79.7 °F /  26.5 °C 40.8 °F /  4.9 °C 29.66in /  1004.3hPa West 2.9mph /  4.7km/h 8.0mph /  12.9km/h 25% 0.00in /  0mm 21.0 W/m2
18:54 79.2 °F /  26.2 °C 40.3 °F /  4.6 °C 29.66in /  1004.3hPa NNW 6.0mph /  9.7km/h 7.0mph /  11.3km/h 25% 0.00in /  0mm 14.0 W/m2
18:59 78.4 °F /  25.8 °C 40.6 °F /  4.8 °C 29.67in /  1004.6hPa SSW 4.9mph /  7.9km/h 12.0mph /  19.3km/h 26% 0.00in /  0mm 11.0 W/m2
19:04 78.1 °F /  25.6 °C 41.4 °F /  5.2 °C 29.67in /  1004.6hPa WSW 4.9mph /  7.9km/h 8.0mph /  12.9km/h 27% 0.00in /  0mm 7.0 W/m2
19:09 77.4 °F /  25.2 °C 40.8 °F /  4.9 °C 29.67in /  1004.6hPa WSW 6.9mph /  11.1km/h 10.0mph /  16.1km/h 27% 0.00in /  0mm 5.0 W/m2
19:15 76.8 °F /  24.9 °C 41.2 °F /  5.1 °C 29.68in /  1005hPa WSW 6.9mph /  11.1km/h 8.0mph /  12.9km/h 28% 0.00in /  0mm 0.0 W/m2
19:20 76.6 °F /  24.8 °C 42.1 °F /  5.6 °C 29.68in /  1005hPa WSW 8.1mph /  13km/h 8.1mph /  13km/h 29% 0.00in /  0mm 0.0 W/m2
19:25 76.3 °F /  24.6 °C 42.6 °F /  5.9 °C 29.68in /  1005hPa WSW 2.0mph /  3.2km/h 8.0mph /  12.9km/h 30% 0.00in /  0mm 0.0 W/m2
19:30 75.9 °F /  24.4 °C 42.3 °F /  5.7 °C 29.69in /  1005.3hPa WSW 4.0mph /  6.4km/h 9.0mph /  14.5km/h 30% 0.00in /  0mm 0.0 W/m2
19:35 75.6 °F /  24.2 °C 42.8 °F /  6 °C 29.69in /  1005.3hPa West 8.1mph /  13km/h 8.1mph /  13km/h 31% 0.00in /  0mm 0.0 W/m2
19:40 75.4 °F /  24.1 °C 42.6 °F /  5.9 °C 29.69in /  1005.3hPa WSW 4.9mph /  7.9km/h 8.0mph /  12.9km/h 31% 0.00in /  0mm 0.0 W/m2
19:45 75.0 °F /  23.9 °C 42.3 °F /  5.7 °C 29.69in /  1005.3hPa WSW 6.9mph /  11.1km/h 9.0mph /  14.5km/h 31% 0.00in /  0mm 0.0 W/m2
19:50 74.8 °F /  23.8 °C 42.3 °F /  5.7 °C 29.70in /  1005.6hPa WSW 4.0mph /  6.4km/h 8.0mph /  12.9km/h 31% 0.00in /  0mm 0.0 W/m2
19:56 74.5 °F /  23.6 °C 42.6 °F /  5.9 °C 29.70in /  1005.6hPa SSW 2.0mph /  3.2km/h 8.0mph /  12.9km/h 32% 0.00in /  0mm 0.0 W/m2
20:02 74.1 °F /  23.4 °C 41.5 °F /  5.3 °C 29.70in /  1005.6hPa WSW 2.0mph /  3.2km/h 7.0mph /  11.3km/h 31% 0.00in /  0mm 0.0 W/m2
20:07 74.1 °F /  23.4 °C 41.5 °F /  5.3 °C 29.71in /  1006hPa SW 2.9mph /  4.7km/h 6.0mph /  9.7km/h 31% 0.00in /  0mm 0.0 W/m2
20:12 73.8 °F /  23.2 °C 42.1 °F /  5.6 °C 29.71in /  1006hPa SSW 2.0mph /  3.2km/h 3.0mph /  4.8km/h 32% 0.00in /  0mm 0.0 W/m2
20:17 73.6 °F /  23.1 °C 41.9 °F /  5.5 °C 29.71in /  1006hPa WSW 2.9mph /  4.7km/h 6.0mph /  9.7km/h 32% 0.00in /  0mm 0.0 W/m2
20:22 73.4 °F /  23 °C 41.7 °F /  5.4 °C 29.71in /  1006hPa West 2.9mph /  4.7km/h 6.0mph /  9.7km/h 32% 0.00in /  0mm 0.0 W/m2
20:27 73.2 °F /  22.9 °C 40.8 °F /  4.9 °C 29.72in /  1006.3hPa SW 4.0mph /  6.4km/h 7.0mph /  11.3km/h 31% 0.00in /  0mm 0.0 W/m2
20:32 73.0 °F /  22.8 °C 39.7 °F /  4.3 °C 29.72in /  1006.3hPa Calm   8.0mph /  12.9km/h 30% 0.00in /  0mm 0.0 W/m2
20:37 72.9 °F /  22.7 °C 40.5 °F /  4.7 °C 29.72in /  1006.3hPa West 2.9mph /  4.7km/h 8.0mph /  12.9km/h 31% 0.00in /  0mm 0.0 W/m2
20:42 72.7 °F /  22.6 °C 40.3 °F /  4.6 °C 29.72in /  1006.3hPa WSW 2.0mph /  3.2km/h 4.0mph /  6.4km/h 31% 0.00in /  0mm 0.0 W/m2
20:48 72.3 °F /  22.4 °C 39.9 °F /  4.4 °C 29.72in /  1006.3hPa Calm   2.0mph /  3.2km/h 31% 0.00in /  0mm 0.0 W/m2
20:53 72.1 °F /  22.3 °C 39.9 °F /  4.4 °C 29.72in /  1006.3hPa WSW 2.9mph /  4.7km/h 5.0mph /  8km/h 31% 0.00in /  0mm 0.0 W/m2
20:58 72.0 °F /  22.2 °C 40.5 °F /  4.7 °C 29.72in /  1006.3hPa Calm   2.0mph /  3.2km/h 32% 0.00in /  0mm 0.0 W/m2
21:03 71.8 °F /  22.1 °C 40.3 °F /  4.6 °C 29.73in /  1006.7hPa West 0.9mph /  1.4km/h 3.0mph /  4.8km/h 32% 0.00in /  0mm 0.0 W/m2
21:08 71.4 °F /  21.9 °C 40.8 °F /  4.9 °C 29.73in /  1006.7hPa Calm   3.0mph /  4.8km/h 33% 0.00in /  0mm 0.0 W/m2
21:13 71.1 °F /  21.7 °C 40.5 °F /  4.7 °C 29.73in /  1006.7hPa Calm   6.0mph /  9.7km/h 33% 0.00in /  0mm 0.0 W/m2
21:18 70.9 °F /  21.6 °C 40.3 °F /  4.6 °C 29.73in /  1006.7hPa Calm   1.0mph /  1.6km/h 33% 0.00in /  0mm 0.0 W/m2
21:24 70.5 °F /  21.4 °C 40.8 °F /  4.9 °C 29.74in /  1007hPa Calm     34% 0.00in /  0mm 0.0 W/m2
21:29 70.2 °F /  21.2 °C 41.2 °F /  5.1 °C 29.74in /  1007hPa Calm     35% 0.00in /  0mm 0.0 W/m2
21:35 70.0 °F /  21.1 °C 41.0 °F /  5 °C 29.74in /  1007hPa Calm   1.0mph /  1.6km/h 35% 0.00in /  0mm 0.0 W/m2
21:40 69.8 °F /  21 °C 41.0 °F /  5 °C 29.74in /  1007hPa Calm     35% 0.00in /  0mm 0.0 W/m2
21:45 69.4 °F /  20.8 °C 41.4 °F /  5.2 °C 29.74in /  1007hPa Calm     36% 0.00in /  0mm 0.0 W/m2
21:50 69.3 °F /  20.7 °C 41.9 °F /  5.5 °C 29.75in /  1007.3hPa Calm   1.0mph /  1.6km/h 37% 0.00in /  0mm 0.0 W/m2
21:55 69.1 °F /  20.6 °C 41.0 °F /  5 °C 29.75in /  1007.3hPa Calm     36% 0.00in /  0mm 0.0 W/m2
22:00 68.5 °F /  20.3 °C 41.9 °F /  5.5 °C 29.75in /  1007.3hPa Calm   1.0mph /  1.6km/h 38% 0.00in /  0mm 0.0 W/m2
22:05 68.4 °F /  20.2 °C 41.0 °F /  5 °C 29.75in /  1007.3hPa Calm     37% 0.00in /  0mm 0.0 W/m2
22:10 68.2 °F /  20.1 °C 41.5 °F /  5.3 °C 29.75in /  1007.3hPa Calm   1.0mph /  1.6km/h 38% 0.00in /  0mm 0.0 W/m2
22:15 67.8 °F /  19.9 °C 41.9 °F /  5.5 °C 29.75in /  1007.3hPa Calm     39% 0.00in /  0mm 0.0 W/m2
22:21 67.6 °F /  19.8 °C 42.4 °F /  5.8 °C 29.76in /  1007.7hPa Calm     40% 0.00in /  0mm 0.0 W/m2
22:26 67.3 °F /  19.6 °C 42.1 °F /  5.6 °C 29.76in /  1007.7hPa Calm   2.0mph /  3.2km/h 40% 0.00in /  0mm 0.0 W/m2
22:32 66.7 °F /  19.3 °C 43.5 °F /  6.4 °C 29.76in /  1007.7hPa Calm   2.0mph /  3.2km/h 43% 0.00in /  0mm 0.0 W/m2
22:37 66.6 °F /  19.2 °C 42.8 °F /  6 °C 29.76in /  1007.7hPa Calm   1.0mph /  1.6km/h 42% 0.00in /  0mm 0.0 W/m2
22:42 66.0 °F /  18.9 °C 42.8 °F /  6 °C 29.76in /  1007.7hPa Calm     43% 0.00in /  0mm 0.0 W/m2
22:47 65.8 °F /  18.8 °C 42.8 °F /  6 °C 29.76in /  1007.7hPa Calm     43% 0.00in /  0mm 0.0 W/m2
22:52 65.7 °F /  18.7 °C 43.2 °F /  6.2 °C 29.76in /  1007.7hPa Calm     44% 0.00in /  0mm 0.0 W/m2
22:57 65.5 °F /  18.6 °C 44.2 °F /  6.8 °C 29.76in /  1007.7hPa Calm   2.0mph /  3.2km/h 46% 0.00in /  0mm 0.0 W/m2
23:03 65.1 °F /  18.4 °C 44.4 °F /  6.9 °C 29.76in /  1007.7hPa Calm   1.0mph /  1.6km/h 47% 0.00in /  0mm 0.0 W/m2
23:08 64.8 °F /  18.2 °C 45.1 °F /  7.3 °C 29.76in /  1007.7hPa Calm   2.0mph /  3.2km/h 49% 0.00in /  0mm 0.0 W/m2
23:13 64.6 °F /  18.1 °C 45.0 °F /  7.2 °C 29.76in /  1007.7hPa Calm   1.0mph /  1.6km/h 49% 0.00in /  0mm 0.0 W/m2
23:18 64.2 °F /  17.9 °C 44.6 °F /  7 °C 29.76in /  1007.7hPa Calm     49% 0.00in /  0mm 0.0 W/m2
23:23 64.0 °F /  17.8 °C 44.4 °F /  6.9 °C 29.76in /  1007.7hPa Calm   1.0mph /  1.6km/h 49% 0.00in /  0mm 0.0 W/m2
23:28 63.7 °F /  17.6 °C 43.7 °F /  6.5 °C 29.76in /  1007.7hPa Calm   1.0mph /  1.6km/h 48% 0.00in /  0mm 0.0 W/m2
23:33 63.5 °F /  17.5 °C 43.0 °F /  6.1 °C 29.76in /  1007.7hPa Calm   1.0mph /  1.6km/h 47% 0.00in /  0mm 0.0 W/m2
23:38 63.3 °F /  17.4 °C 43.3 °F /  6.3 °C 29.76in /  1007.7hPa Calm   1.0mph /  1.6km/h 48% 0.00in /  0mm 0.0 W/m2
23:44 63.1 °F /  17.3 °C 44.8 °F /  7.1 °C 29.77in /  1008hPa Calm   1.0mph /  1.6km/h 51% 0.00in /  0mm 0.0 W/m2
23:49 63.1 °F /  17.3 °C 44.2 °F /  6.8 °C 29.76in /  1007.7hPa Calm     50% 0.00in /  0mm 0.0 W/m2
23:54 63.0 °F /  17.2 °C 44.6 °F /  7 °C 29.76in /  1007.7hPa Calm     51% 0.00in /  0mm 0.0 W/m2
23:59 63.0 °F /  17.2 °C 44.6 °F /  7 °C 29.76in /  1007.7hPa Calm     51% 0.00in /  0mm 0.0 W/m2
Olympia, Windhoek, Namibia
Compliments of Weather Underground - 3.25 mb